Terminal Aerodrome Forecast
Issued by NWS Paducah, KY

Home | Current Version | Previous Version | Text Only | Print | Product List | Glossary On
Versions: 1 2 3 4 5 6 7 8 9 10 11 12 13 14 15 16 17 18 19 20 21 22 23 24 25 26 27 28 29 30 31 32 33 34 35 36 37 38 39 40 41 42 43 44 45 46 47 48 49 50
000
FTUS43 KPAH 162320
TAFPAH
TAF
KPAH 162320Z 1700/1724 21009KT P6SM VCSH OVC100
      TEMPO 1700/1702 6SM TSRA BR OVC017CB
     FM170200 21008KT P6SM VCSH BKN045
     FM170800 23006KT P6SM BKN010
     FM171300 24005KT P6SM BKN040=

USA.gov is the U.S. government's official web portal to all federal, state and local government web resources and services.